sensor_id;sensor_type;location;lat;lon;timestamp;P1;durP1;ratioP1;P2;durP2;ratioP2
51578;SDS011;47998;53.242;6.386;2022-11-20T00:00:53;29.57;;;16.33;;
51578;SDS011;47998;53.242;6.386;2022-11-20T00:03:19;28.70;;;16.77;;
51578;SDS011;47998;53.242;6.386;2022-11-20T00:05:45;30.13;;;16.93;;
51578;SDS011;47998;53.242;6.386;2022-11-20T00:08:10;28.80;;;16.73;;
51578;SDS011;47998;53.242;6.386;2022-11-20T00:10:37;32.93;;;17.37;;
51578;SDS011;47998;53.242;6.386;2022-11-20T00:13:03;27.93;;;15.53;;
51578;SDS011;47998;53.242;6.386;2022-11-20T00:15:29;26.80;;;14.83;;
51578;SDS011;47998;53.242;6.386;2022-11-20T00:17:56;27.27;;;14.60;;
51578;SDS011;47998;53.242;6.386;2022-11-20T00:20:21;27.87;;;15.87;;
51578;SDS011;47998;53.242;6.386;2022-11-20T00:22:47;30.47;;;16.17;;
51578;SDS011;47998;53.242;6.386;2022-11-20T00:25:14;28.20;;;16.97;;
51578;SDS011;47998;53.242;6.386;2022-11-20T00:27:39;26.40;;;15.83;;
51578;SDS011;47998;53.242;6.386;2022-11-20T00:30:05;28.93;;;16.73;;
51578;SDS011;47998;53.242;6.386;2022-11-20T00:32:31;27.30;;;16.13;;
51578;SDS011;47998;53.242;6.386;2022-11-20T00:34:57;27.03;;;16.10;;
51578;SDS011;47998;53.242;6.386;2022-11-20T00:37:23;26.17;;;15.97;;
51578;SDS011;47998;53.242;6.386;2022-11-20T00:39:48;26.37;;;16.57;;
51578;SDS011;47998;53.242;6.386;2022-11-20T00:42:14;26.90;;;15.87;;
51578;SDS011;47998;53.242;6.386;2022-11-20T00:44:40;24.27;;;14.67;;
51578;SDS011;47998;53.242;6.386;2022-11-20T00:47:05;30.43;;;15.97;;
51578;SDS011;47998;53.242;6.386;2022-11-20T00:49:31;46.10;;;23.23;;
51578;SDS011;47998;53.242;6.386;2022-11-20T00:51:57;55.03;;;25.27;;
51578;SDS011;47998;53.242;6.386;2022-11-20T00:54:22;46.67;;;23.90;;
51578;SDS011;47998;53.242;6.386;2022-11-20T00:56:48;30.07;;;17.17;;
51578;SDS011;47998;53.242;6.386;2022-11-20T00:59:14;32.47;;;17.50;;
51578;SDS011;47998;53.242;6.386;2022-11-20T01:01:40;25.90;;;14.87;;
51578;SDS011;47998;53.242;6.386;2022-11-20T01:04:05;24.63;;;14.50;;
51578;SDS011;47998;53.242;6.386;2022-11-20T01:06:32;23.17;;;14.73;;
51578;SDS011;47998;53.242;6.386;2022-11-20T01:09:01;22.77;;;14.37;;
51578;SDS011;47998;53.242;6.386;2022-11-20T01:11:38;21.23;;;13.60;;
51578;SDS011;47998;53.242;6.386;2022-11-20T01:14:13;25.80;;;14.17;;
51578;SDS011;47998;53.242;6.386;2022-11-20T01:16:41;21.10;;;13.23;;
51578;SDS011;47998;53.242;6.386;2022-11-20T01:19:16;22.23;;;13.07;;
51578;SDS011;47998;53.242;6.386;2022-11-20T01:21:44;22.63;;;14.17;;
51578;SDS011;47998;53.242;6.386;2022-11-20T01:24:11;24.80;;;15.20;;
51578;SDS011;47998;53.242;6.386;2022-11-20T01:26:40;24.57;;;15.27;;
51578;SDS011;47998;53.242;6.386;2022-11-20T01:29:15;27.73;;;14.60;;
51578;SDS011;47998;53.242;6.386;2022-11-20T01:31:42;21.87;;;14.37;;
51578;SDS011;47998;53.242;6.386;2022-11-20T01:34:10;34.63;;;17.60;;
51578;SDS011;47998;53.242;6.386;2022-11-20T01:36:37;32.07;;;16.60;;
51578;SDS011;47998;53.242;6.386;2022-11-20T01:39:05;28.77;;;15.53;;
51578;SDS011;47998;53.242;6.386;2022-11-20T01:41:33;28.83;;;16.47;;
51578;SDS011;47998;53.242;6.386;2022-11-20T01:44:19;28.40;;;16.70;;
51578;SDS011;47998;53.242;6.386;2022-11-20T01:46:52;24.50;;;13.90;;
51578;SDS011;47998;53.242;6.386;2022-11-20T01:49:25;24.10;;;14.83;;
51578;SDS011;47998;53.242;6.386;2022-11-20T01:52:20;24.20;;;14.57;;
51578;SDS011;47998;53.242;6.386;2022-11-20T01:55:10;21.63;;;14.47;;
51578;SDS011;47998;53.242;6.386;2022-11-20T01:57:42;22.07;;;13.30;;
51578;SDS011;47998;53.242;6.386;2022-11-20T02:00:11;24.27;;;13.93;;
51578;SDS011;47998;53.242;6.386;2022-11-20T02:02:39;26.10;;;14.77;;
51578;SDS011;47998;53.242;6.386;2022-11-20T02:05:43;21.13;;;13.43;;
51578;SDS011;47998;53.242;6.386;2022-11-20T02:08:05;21.50;;;13.23;;
51578;SDS011;47998;53.242;6.386;2022-11-20T02:10:32;26.40;;;14.33;;
51578;SDS011;47998;53.242;6.386;2022-11-20T02:12:58;23.67;;;14.57;;
51578;SDS011;47998;53.242;6.386;2022-11-20T02:15:42;24.47;;;14.37;;
51578;SDS011;47998;53.242;6.386;2022-11-20T02:18:09;24.77;;;15.63;;
51578;SDS011;47998;53.242;6.386;2022-11-20T02:20:36;26.25;;;15.43;;
51578;SDS011;47998;53.242;6.386;2022-11-20T02:25:50;22.70;;;14.43;;
51578;SDS011;47998;53.242;6.386;2022-11-20T02:28:18;18.93;;;12.37;;
51578;SDS011;47998;53.242;6.386;2022-11-20T02:30:44;25.30;;;14.23;;
51578;SDS011;47998;53.242;6.386;2022-11-20T02:33:10;24.27;;;15.50;;
51578;SDS011;47998;53.242;6.386;2022-11-20T02:38:01;22.13;;;13.20;;
51578;SDS011;47998;53.242;6.386;2022-11-20T02:40:28;22.60;;;13.90;;
51578;SDS011;47998;53.242;6.386;2022-11-20T02:42:54;24.30;;;14.53;;
51578;SDS011;47998;53.242;6.386;2022-11-20T02:45:21;19.93;;;13.17;;
51578;SDS011;47998;53.242;6.386;2022-11-20T02:47:48;22.40;;;13.33;;
51578;SDS011;47998;53.242;6.386;2022-11-20T02:50:14;20.97;;;13.50;;
51578;SDS011;47998;53.242;6.386;2022-11-20T02:52:39;22.67;;;13.07;;
51578;SDS011;47998;53.242;6.386;2022-11-20T02:55:05;20.87;;;13.27;;
51578;SDS011;47998;53.242;6.386;2022-11-20T02:57:31;19.00;;;11.87;;
51578;SDS011;47998;53.242;6.386;2022-11-20T02:59:57;19.27;;;12.10;;
51578;SDS011;47998;53.242;6.386;2022-11-20T03:02:23;19.70;;;12.67;;
51578;SDS011;47998;53.242;6.386;2022-11-20T03:04:48;21.27;;;13.33;;
51578;SDS011;47998;53.242;6.386;2022-11-20T03:07:15;20.53;;;12.47;;
51578;SDS011;47998;53.242;6.386;2022-11-20T03:09:40;18.97;;;12.67;;
51578;SDS011;47998;53.242;6.386;2022-11-20T03:12:06;17.73;;;12.33;;
51578;SDS011;47998;53.242;6.386;2022-11-20T03:14:32;17.27;;;11.73;;
51578;SDS011;47998;53.242;6.386;2022-11-20T03:16:59;18.83;;;12.17;;
51578;SDS011;47998;53.242;6.386;2022-11-20T03:19:24;19.67;;;12.47;;
51578;SDS011;47998;53.242;6.386;2022-11-20T03:21:50;16.03;;;10.20;;
51578;SDS011;47998;53.242;6.386;2022-11-20T03:24:16;19.00;;;10.97;;
51578;SDS011;47998;53.242;6.386;2022-11-20T03:26:41;18.87;;;11.23;;
51578;SDS011;47998;53.242;6.386;2022-11-20T03:29:07;18.47;;;11.80;;
51578;SDS011;47998;53.242;6.386;2022-11-20T03:31:34;19.60;;;11.53;;
51578;SDS011;47998;53.242;6.386;2022-11-20T03:34:02;16.23;;;11.50;;
51578;SDS011;47998;53.242;6.386;2022-11-20T03:36:28;18.87;;;10.73;;
51578;SDS011;47998;53.242;6.386;2022-11-20T03:38:55;19.40;;;11.60;;
51578;SDS011;47998;53.242;6.386;2022-11-20T03:41:30;15.07;;;10.30;;
51578;SDS011;47998;53.242;6.386;2022-11-20T03:44:01;15.87;;;10.47;;
51578;SDS011;47998;53.242;6.386;2022-11-20T03:46:29;17.77;;;11.20;;
51578;SDS011;47998;53.242;6.386;2022-11-20T03:48:55;19.13;;;11.73;;
51578;SDS011;47998;53.242;6.386;2022-11-20T03:51:22;19.37;;;12.03;;
51578;SDS011;47998;53.242;6.386;2022-11-20T03:53:50;19.13;;;12.80;;
51578;SDS011;47998;53.242;6.386;2022-11-20T03:56:19;15.73;;;10.70;;
51578;SDS011;47998;53.242;6.386;2022-11-20T03:58:47;19.90;;;11.90;;
51578;SDS011;47998;53.242;6.386;2022-11-20T04:01:13;16.97;;;11.43;;
51578;SDS011;47998;53.242;6.386;2022-11-20T04:03:42;17.23;;;10.33;;
51578;SDS011;47998;53.242;6.386;2022-11-20T04:06:10;16.30;;;9.97;;
51578;SDS011;47998;53.242;6.386;2022-11-20T04:08:40;16.27;;;10.43;;
51578;SDS011;47998;53.242;6.386;2022-11-20T04:11:10;17.80;;;11.60;;
51578;SDS011;47998;53.242;6.386;2022-11-20T04:13:37;16.43;;;10.73;;
51578;SDS011;47998;53.242;6.386;2022-11-20T04:16:05;18.03;;;11.00;;
51578;SDS011;47998;53.242;6.386;2022-11-20T04:18:32;20.63;;;12.27;;
51578;SDS011;47998;53.242;6.386;2022-11-20T04:20:58;20.03;;;11.97;;
51578;SDS011;47998;53.242;6.386;2022-11-20T04:23:24;21.10;;;11.90;;
51578;SDS011;47998;53.242;6.386;2022-11-20T04:25:50;20.73;;;12.50;;
51578;SDS011;47998;53.242;6.386;2022-11-20T04:28:16;18.35;;;12.00;;
51578;SDS011;47998;53.242;6.386;2022-11-20T04:30:41;17.57;;;11.23;;
51578;SDS011;47998;53.242;6.386;2022-11-20T04:33:07;17.83;;;12.13;;
51578;SDS011;47998;53.242;6.386;2022-11-20T04:35:33;18.17;;;12.30;;
51578;SDS011;47998;53.242;6.386;2022-11-20T04:38:00;16.33;;;11.05;;
51578;SDS011;47998;53.242;6.386;2022-11-20T04:40:26;17.27;;;11.27;;
51578;SDS011;47998;53.242;6.386;2022-11-20T04:42:52;18.67;;;11.88;;
51578;SDS011;47998;53.242;6.386;2022-11-20T04:45:19;17.80;;;11.47;;
51578;SDS011;47998;53.242;6.386;2022-11-20T04:47:45;16.80;;;11.03;;
51578;SDS011;47998;53.242;6.386;2022-11-20T04:50:10;15.50;;;10.50;;
51578;SDS011;47998;53.242;6.386;2022-11-20T04:52:36;18.73;;;11.40;;
51578;SDS011;47998;53.242;6.386;2022-11-20T04:55:02;14.87;;;10.13;;
51578;SDS011;47998;53.242;6.386;2022-11-20T04:57:28;16.97;;;10.97;;
51578;SDS011;47998;53.242;6.386;2022-11-20T04:59:54;18.87;;;12.37;;
51578;SDS011;47998;53.242;6.386;2022-11-20T05:02:19;16.80;;;11.23;;
51578;SDS011;47998;53.242;6.386;2022-11-20T05:04:45;17.37;;;11.90;;
51578;SDS011;47998;53.242;6.386;2022-11-20T05:07:11;17.50;;;11.13;;
51578;SDS011;47998;53.242;6.386;2022-11-20T05:09:37;19.20;;;11.97;;
51578;SDS011;47998;53.242;6.386;2022-11-20T05:12:02;18.33;;;11.20;;
51578;SDS011;47998;53.242;6.386;2022-11-20T05:14:28;18.20;;;11.50;;
51578;SDS011;47998;53.242;6.386;2022-11-20T05:16:54;20.43;;;13.77;;
51578;SDS011;47998;53.242;6.386;2022-11-20T05:19:20;17.13;;;11.37;;
51578;SDS011;47998;53.242;6.386;2022-11-20T05:21:45;15.07;;;10.73;;
51578;SDS011;47998;53.242;6.386;2022-11-20T05:24:11;17.77;;;11.70;;
51578;SDS011;47998;53.242;6.386;2022-11-20T05:26:37;21.77;;;12.03;;
51578;SDS011;47998;53.242;6.386;2022-11-20T05:29:03;19.67;;;12.43;;
51578;SDS011;47998;53.242;6.386;2022-11-20T05:31:28;17.02;;;11.00;;
51578;SDS011;47998;53.242;6.386;2022-11-20T05:33:55;16.93;;;10.90;;
51578;SDS011;47998;53.242;6.386;2022-11-20T05:36:22;18.15;;;11.40;;
51578;SDS011;47998;53.242;6.386;2022-11-20T05:38:48;18.42;;;10.80;;
51578;SDS011;47998;53.242;6.386;2022-11-20T05:41:15;18.70;;;11.20;;
51578;SDS011;47998;53.242;6.386;2022-11-20T05:43:43;15.87;;;10.27;;
51578;SDS011;47998;53.242;6.386;2022-11-20T05:46:11;16.13;;;10.23;;
51578;SDS011;47998;53.242;6.386;2022-11-20T05:48:38;15.90;;;10.03;;
51578;SDS011;47998;53.242;6.386;2022-11-20T05:51:06;18.87;;;11.97;;
51578;SDS011;47998;53.242;6.386;2022-11-20T05:53:33;15.27;;;10.57;;
51578;SDS011;47998;53.242;6.386;2022-11-20T05:56:00;16.57;;;11.37;;
51578;SDS011;47998;53.242;6.386;2022-11-20T05:58:28;15.83;;;10.40;;
51578;SDS011;47998;53.242;6.386;2022-11-20T06:01:02;14.23;;;10.07;;
51578;SDS011;47998;53.242;6.386;2022-11-20T06:03:32;15.57;;;11.10;;
51578;SDS011;47998;53.242;6.386;2022-11-20T06:06:01;19.50;;;11.30;;
51578;SDS011;47998;53.242;6.386;2022-11-20T06:08:28;15.00;;;10.40;;
51578;SDS011;47998;53.242;6.386;2022-11-20T06:10:54;17.13;;;10.93;;
51578;SDS011;47998;53.242;6.386;2022-11-20T06:13:20;15.30;;;10.07;;
51578;SDS011;47998;53.242;6.386;2022-11-20T06:15:52;15.80;;;9.70;;
51578;SDS011;47998;53.242;6.386;2022-11-20T06:18:18;15.23;;;10.10;;
51578;SDS011;47998;53.242;6.386;2022-11-20T06:20:45;16.07;;;10.50;;
51578;SDS011;47998;53.242;6.386;2022-11-20T06:23:11;15.07;;;9.40;;
51578;SDS011;47998;53.242;6.386;2022-11-20T06:25:38;16.07;;;9.87;;
51578;SDS011;47998;53.242;6.386;2022-11-20T06:28:05;16.27;;;10.20;;
51578;SDS011;47998;53.242;6.386;2022-11-20T06:30:30;15.43;;;10.40;;
51578;SDS011;47998;53.242;6.386;2022-11-20T06:32:56;15.27;;;9.90;;
51578;SDS011;47998;53.242;6.386;2022-11-20T06:35:22;14.53;;;10.37;;
51578;SDS011;47998;53.242;6.386;2022-11-20T06:37:47;16.65;;;10.52;;
51578;SDS011;47998;53.242;6.386;2022-11-20T06:40:13;16.17;;;10.60;;
51578;SDS011;47998;53.242;6.386;2022-11-20T06:42:39;17.67;;;10.07;;
51578;SDS011;47998;53.242;6.386;2022-11-20T06:45:04;14.48;;;10.40;;
51578;SDS011;47998;53.242;6.386;2022-11-20T06:47:30;16.53;;;10.47;;
51578;SDS011;47998;53.242;6.386;2022-11-20T06:49:56;15.38;;;10.60;;
51578;SDS011;47998;53.242;6.386;2022-11-20T06:52:22;14.40;;;9.80;;
51578;SDS011;47998;53.242;6.386;2022-11-20T06:54:47;16.67;;;10.20;;
51578;SDS011;47998;53.242;6.386;2022-11-20T06:57:13;14.23;;;9.32;;
51578;SDS011;47998;53.242;6.386;2022-11-20T06:59:39;15.40;;;9.55;;
51578;SDS011;47998;53.242;6.386;2022-11-20T07:02:04;15.47;;;9.63;;
51578;SDS011;47998;53.242;6.386;2022-11-20T07:04:30;14.98;;;10.15;;
51578;SDS011;47998;53.242;6.386;2022-11-20T07:06:56;16.23;;;9.80;;
51578;SDS011;47998;53.242;6.386;2022-11-20T07:09:21;13.13;;;8.73;;
51578;SDS011;47998;53.242;6.386;2022-11-20T07:11:47;15.50;;;9.73;;
51578;SDS011;47998;53.242;6.386;2022-11-20T07:14:13;15.10;;;9.83;;
51578;SDS011;47998;53.242;6.386;2022-11-20T07:16:39;14.17;;;9.13;;
51578;SDS011;47998;53.242;6.386;2022-11-20T07:19:05;17.93;;;9.83;;
51578;SDS011;47998;53.242;6.386;2022-11-20T07:21:30;14.27;;;9.27;;
51578;SDS011;47998;53.242;6.386;2022-11-20T07:23:56;14.90;;;9.77;;
51578;SDS011;47998;53.242;6.386;2022-11-20T07:26:22;13.97;;;9.57;;
51578;SDS011;47998;53.242;6.386;2022-11-20T07:28:47;15.43;;;9.97;;
51578;SDS011;47998;53.242;6.386;2022-11-20T07:31:13;12.45;;;9.20;;
51578;SDS011;47998;53.242;6.386;2022-11-20T07:33:39;14.50;;;9.87;;
51578;SDS011;47998;53.242;6.386;2022-11-20T07:36:05;15.10;;;9.40;;
51578;SDS011;47998;53.242;6.386;2022-11-20T07:38:30;16.27;;;9.70;;
51578;SDS011;47998;53.242;6.386;2022-11-20T07:40:57;14.03;;;9.30;;
51578;SDS011;47998;53.242;6.386;2022-11-20T07:43:23;14.63;;;10.10;;
51578;SDS011;47998;53.242;6.386;2022-11-20T07:45:50;16.17;;;9.82;;
51578;SDS011;47998;53.242;6.386;2022-11-20T07:48:16;17.53;;;10.60;;
51578;SDS011;47998;53.242;6.386;2022-11-20T07:50:41;14.63;;;9.63;;
51578;SDS011;47998;53.242;6.386;2022-11-20T07:53:07;15.10;;;10.50;;
51578;SDS011;47998;53.242;6.386;2022-11-20T07:55:33;13.93;;;9.98;;
51578;SDS011;47998;53.242;6.386;2022-11-20T07:57:59;13.75;;;9.20;;
51578;SDS011;47998;53.242;6.386;2022-11-20T08:00:25;14.43;;;10.07;;
51578;SDS011;47998;53.242;6.386;2022-11-20T08:02:51;16.60;;;10.55;;
51578;SDS011;47998;53.242;6.386;2022-11-20T08:05:17;16.37;;;9.37;;
51578;SDS011;47998;53.242;6.386;2022-11-20T08:07:43;21.80;;;11.50;;
51578;SDS011;47998;53.242;6.386;2022-11-20T08:10:10;16.65;;;10.93;;
51578;SDS011;47998;53.242;6.386;2022-11-20T08:12:48;13.20;;;9.15;;
51578;SDS011;47998;53.242;6.386;2022-11-20T08:15:33;13.80;;;9.93;;
51578;SDS011;47998;53.242;6.386;2022-11-20T08:18:00;16.17;;;9.98;;
51578;SDS011;47998;53.242;6.386;2022-11-20T08:20:28;13.93;;;8.93;;
51578;SDS011;47998;53.242;6.386;2022-11-20T08:22:57;19.08;;;10.25;;
51578;SDS011;47998;53.242;6.386;2022-11-20T08:25:26;23.88;;;13.63;;
51578;SDS011;47998;53.242;6.386;2022-11-20T08:27:53;15.70;;;10.68;;
51578;SDS011;47998;53.242;6.386;2022-11-20T08:30:18;16.85;;;10.38;;
51578;SDS011;47998;53.242;6.386;2022-11-20T08:32:44;13.70;;;10.05;;
51578;SDS011;47998;53.242;6.386;2022-11-20T08:35:10;15.10;;;11.23;;
51578;SDS011;47998;53.242;6.386;2022-11-20T08:37:36;17.88;;;12.50;;
51578;SDS011;47998;53.242;6.386;2022-11-20T08:40:06;16.13;;;11.27;;
51578;SDS011;47998;53.242;6.386;2022-11-20T08:42:35;15.68;;;10.65;;
51578;SDS011;47998;53.242;6.386;2022-11-20T08:45:01;13.93;;;9.40;;
51578;SDS011;47998;53.242;6.386;2022-11-20T08:47:27;12.98;;;9.70;;
51578;SDS011;47998;53.242;6.386;2022-11-20T08:49:52;13.60;;;9.98;;
51578;SDS011;47998;53.242;6.386;2022-11-20T08:52:18;13.25;;;8.90;;
51578;SDS011;47998;53.242;6.386;2022-11-20T08:54:44;13.15;;;9.75;;
51578;SDS011;47998;53.242;6.386;2022-11-20T08:57:09;13.70;;;8.20;;
51578;SDS011;47998;53.242;6.386;2022-11-20T08:59:35;12.45;;;9.65;;
51578;SDS011;47998;53.242;6.386;2022-11-20T09:02:01;12.88;;;9.43;;
51578;SDS011;47998;53.242;6.386;2022-11-20T09:04:26;13.30;;;8.82;;
51578;SDS011;47998;53.242;6.386;2022-11-20T09:06:52;15.07;;;9.30;;
51578;SDS011;47998;53.242;6.386;2022-11-20T09:09:18;13.07;;;9.00;;
51578;SDS011;47998;53.242;6.386;2022-11-20T09:11:44;13.70;;;9.68;;
51578;SDS011;47998;53.242;6.386;2022-11-20T09:14:09;15.43;;;9.23;;
51578;SDS011;47998;53.242;6.386;2022-11-20T09:16:35;13.98;;;9.50;;
51578;SDS011;47998;53.242;6.386;2022-11-20T09:19:01;12.90;;;9.60;;
51578;SDS011;47998;53.242;6.386;2022-11-20T09:21:26;13.40;;;9.20;;
51578;SDS011;47998;53.242;6.386;2022-11-20T09:23:52;13.75;;;9.02;;
51578;SDS011;47998;53.242;6.386;2022-11-20T09:26:18;13.30;;;8.82;;
51578;SDS011;47998;53.242;6.386;2022-11-20T09:28:44;11.07;;;8.02;;
51578;SDS011;47998;53.242;6.386;2022-11-20T09:31:43;13.07;;;9.07;;
51578;SDS011;47998;53.242;6.386;2022-11-20T09:34:02;13.98;;;9.68;;
51578;SDS011;47998;53.242;6.386;2022-11-20T09:36:27;13.15;;;8.77;;
51578;SDS011;47998;53.242;6.386;2022-11-20T09:38:53;13.30;;;8.85;;
51578;SDS011;47998;53.242;6.386;2022-11-20T09:53:01;12.95;;;8.52;;
51578;SDS011;47998;53.242;6.386;2022-11-20T09:55:44;13.55;;;9.27;;
51578;SDS011;47998;53.242;6.386;2022-11-20T10:01:14;12.43;;;9.13;;
51578;SDS011;47998;53.242;6.386;2022-11-20T10:03:58;14.63;;;9.45;;
51578;SDS011;47998;53.242;6.386;2022-11-20T10:06:33;12.52;;;8.80;;
51578;SDS011;47998;53.242;6.386;2022-11-20T10:11:51;14.37;;;8.60;;
51578;SDS011;47998;53.242;6.386;2022-11-20T10:17:51;13.07;;;8.23;;
51578;SDS011;47998;53.242;6.386;2022-11-20T10:29:15;12.82;;;9.32;;
51578;SDS011;47998;53.242;6.386;2022-11-20T10:31:44;13.77;;;9.48;;
51578;SDS011;47998;53.242;6.386;2022-11-20T10:34:22;11.10;;;8.00;;
51578;SDS011;47998;53.242;6.386;2022-11-20T10:37:00;14.45;;;8.70;;
51578;SDS011;47998;53.242;6.386;2022-11-20T10:39:41;11.65;;;8.38;;
51578;SDS011;47998;53.242;6.386;2022-11-20T10:42:35;11.60;;;7.43;;
51578;SDS011;47998;53.242;6.386;2022-11-20T10:50:59;12.60;;;9.38;;
51578;SDS011;47998;53.242;6.386;2022-11-20T10:56:16;18.50;;;12.23;;
51578;SDS011;47998;53.242;6.386;2022-11-20T10:59:04;19.75;;;12.70;;
51578;SDS011;47998;53.242;6.386;2022-11-20T11:01:41;12.80;;;9.75;;
51578;SDS011;47998;53.242;6.386;2022-11-20T11:06:51;14.90;;;10.00;;
51578;SDS011;47998;53.242;6.386;2022-11-20T11:09:24;12.40;;;8.95;;
51578;SDS011;47998;53.242;6.386;2022-11-20T11:11:57;12.77;;;8.18;;
51578;SDS011;47998;53.242;6.386;2022-11-20T11:14:23;13.57;;;8.88;;
51578;SDS011;47998;53.242;6.386;2022-11-20T11:16:56;16.90;;;9.43;;
51578;SDS011;47998;53.242;6.386;2022-11-20T11:19:23;29.40;;;20.52;;
51578;SDS011;47998;53.242;6.386;2022-11-20T11:21:50;42.63;;;27.60;;
51578;SDS011;47998;53.242;6.386;2022-11-20T11:26:57;38.00;;;25.38;;
51578;SDS011;47998;53.242;6.386;2022-11-20T11:29:29;25.20;;;17.33;;
51578;SDS011;47998;53.242;6.386;2022-11-20T11:32:03;22.42;;;15.10;;
51578;SDS011;47998;53.242;6.386;2022-11-20T11:34:30;13.45;;;9.68;;
51578;SDS011;47998;53.242;6.386;2022-11-20T11:36:58;20.33;;;13.00;;
51578;SDS011;47998;53.242;6.386;2022-11-20T11:39:26;13.80;;;9.25;;
51578;SDS011;47998;53.242;6.386;2022-11-20T11:41:53;12.18;;;8.55;;
51578;SDS011;47998;53.242;6.386;2022-11-20T11:44:30;13.60;;;8.90;;
51578;SDS011;47998;53.242;6.386;2022-11-20T11:50:28;14.52;;;8.10;;
51578;SDS011;47998;53.242;6.386;2022-11-20T11:52:59;10.53;;;7.33;;
51578;SDS011;47998;53.242;6.386;2022-11-20T11:56:16;9.00;;;6.55;;
51578;SDS011;47998;53.242;6.386;2022-11-20T11:58:32;9.05;;;6.20;;
51578;SDS011;47998;53.242;6.386;2022-11-20T12:06:42;9.32;;;6.72;;
51578;SDS011;47998;53.242;6.386;2022-11-20T12:09:12;6.80;;;5.03;;
51578;SDS011;47998;53.242;6.386;2022-11-20T12:11:54;7.75;;;4.85;;
51578;SDS011;47998;53.242;6.386;2022-11-20T12:16:56;5.13;;;3.65;;
51578;SDS011;47998;53.242;6.386;2022-11-20T12:19:22;6.85;;;4.70;;
51578;SDS011;47998;53.242;6.386;2022-11-20T12:21:53;5.05;;;3.45;;
51578;SDS011;47998;53.242;6.386;2022-11-20T12:24:39;5.53;;;4.07;;
51578;SDS011;47998;53.242;6.386;2022-11-20T12:30:20;5.13;;;3.53;;
51578;SDS011;47998;53.242;6.386;2022-11-20T12:32:58;5.25;;;3.50;;
51578;SDS011;47998;53.242;6.386;2022-11-20T12:52:48;5.22;;;3.95;;
51578;SDS011;47998;53.242;6.386;2022-11-20T12:58:18;7.78;;;3.95;;
51578;SDS011;47998;53.242;6.386;2022-11-20T13:07:02;5.63;;;3.95;;
51578;SDS011;47998;53.242;6.386;2022-11-20T13:09:31;6.57;;;4.03;;
51578;SDS011;47998;53.242;6.386;2022-11-20T13:12:04;4.78;;;3.70;;
51578;SDS011;47998;53.242;6.386;2022-11-20T13:14:42;5.25;;;4.13;;
51578;SDS011;47998;53.242;6.386;2022-11-20T13:18:10;5.85;;;3.97;;
51578;SDS011;47998;53.242;6.386;2022-11-20T13:20:18;5.90;;;3.78;;
51578;SDS011;47998;53.242;6.386;2022-11-20T13:22:45;4.07;;;3.00;;
51578;SDS011;47998;53.242;6.386;2022-11-20T13:25:23;5.43;;;3.95;;
51578;SDS011;47998;53.242;6.386;2022-11-20T13:27:54;5.28;;;4.05;;
51578;SDS011;47998;53.242;6.386;2022-11-20T13:30:22;6.20;;;4.05;;
51578;SDS011;47998;53.242;6.386;2022-11-20T13:33:06;5.60;;;3.83;;
51578;SDS011;47998;53.242;6.386;2022-11-20T13:35:55;6.53;;;4.18;;
51578;SDS011;47998;53.242;6.386;2022-11-20T13:41:33;5.88;;;3.72;;
51578;SDS011;47998;53.242;6.386;2022-11-20T13:44:10;7.07;;;5.28;;
51578;SDS011;47998;53.242;6.386;2022-11-20T13:46:46;7.28;;;4.35;;
51578;SDS011;47998;53.242;6.386;2022-11-20T13:51:50;7.03;;;4.43;;
51578;SDS011;47998;53.242;6.386;2022-11-20T14:02:26;7.97;;;4.25;;
51578;SDS011;47998;53.242;6.386;2022-11-20T14:04:56;7.00;;;4.45;;
51578;SDS011;47998;53.242;6.386;2022-11-20T14:07:25;8.32;;;5.00;;
51578;SDS011;47998;53.242;6.386;2022-11-20T14:09:57;7.10;;;4.85;;
51578;SDS011;47998;53.242;6.386;2022-11-20T14:12:27;7.82;;;4.65;;
51578;SDS011;47998;53.242;6.386;2022-11-20T14:14:54;5.25;;;4.10;;
51578;SDS011;47998;53.242;6.386;2022-11-20T14:17:22;5.53;;;4.15;;
51578;SDS011;47998;53.242;6.386;2022-11-20T14:19:54;9.65;;;5.57;;
51578;SDS011;47998;53.242;6.386;2022-11-20T14:22:24;6.32;;;4.65;;
51578;SDS011;47998;53.242;6.386;2022-11-20T14:25:18;6.63;;;4.50;;
51578;SDS011;47998;53.242;6.386;2022-11-20T14:27:44;7.38;;;5.13;;
51578;SDS011;47998;53.242;6.386;2022-11-20T14:30:16;8.38;;;5.18;;
51578;SDS011;47998;53.242;6.386;2022-11-20T14:32:48;6.72;;;4.90;;
51578;SDS011;47998;53.242;6.386;2022-11-20T14:37:55;8.23;;;4.82;;
51578;SDS011;47998;53.242;6.386;2022-11-20T14:40:22;6.63;;;4.82;;
51578;SDS011;47998;53.242;6.386;2022-11-20T14:42:56;8.85;;;5.90;;
51578;SDS011;47998;53.242;6.386;2022-11-20T14:45:22;8.20;;;5.75;;
51578;SDS011;47998;53.242;6.386;2022-11-20T14:47:51;8.10;;;5.28;;
51578;SDS011;47998;53.242;6.386;2022-11-20T14:50:25;8.55;;;5.70;;
51578;SDS011;47998;53.242;6.386;2022-11-20T14:52:57;6.97;;;5.32;;
51578;SDS011;47998;53.242;6.386;2022-11-20T14:55:34;7.80;;;5.55;;
51578;SDS011;47998;53.242;6.386;2022-11-20T14:58:21;7.50;;;5.43;;
51578;SDS011;47998;53.242;6.386;2022-11-20T15:03:22;7.15;;;5.20;;
51578;SDS011;47998;53.242;6.386;2022-11-20T15:05:48;8.65;;;5.32;;
51578;SDS011;47998;53.242;6.386;2022-11-20T15:08:16;8.70;;;6.18;;
51578;SDS011;47998;53.242;6.386;2022-11-20T15:10:46;8.25;;;6.43;;
51578;SDS011;47998;53.242;6.386;2022-11-20T15:18:18;10.38;;;6.13;;
51578;SDS011;47998;53.242;6.386;2022-11-20T15:20:46;8.43;;;5.55;;
51578;SDS011;47998;53.242;6.386;2022-11-20T15:23:13;10.18;;;6.78;;
51578;SDS011;47998;53.242;6.386;2022-11-20T15:25:40;9.38;;;6.57;;
51578;SDS011;47998;53.242;6.386;2022-11-20T15:28:17;12.55;;;6.97;;
51578;SDS011;47998;53.242;6.386;2022-11-20T15:30:54;9.65;;;6.40;;
51578;SDS011;47998;53.242;6.386;2022-11-20T15:33:20;10.13;;;6.32;;
51578;SDS011;47998;53.242;6.386;2022-11-20T15:35:47;9.93;;;6.10;;
51578;SDS011;47998;53.242;6.386;2022-11-20T15:38:12;7.97;;;5.63;;
51578;SDS011;47998;53.242;6.386;2022-11-20T15:40:38;10.07;;;6.35;;
51578;SDS011;47998;53.242;6.386;2022-11-20T15:43:04;11.15;;;6.47;;
51578;SDS011;47998;53.242;6.386;2022-11-20T15:45:36;10.75;;;6.60;;
51578;SDS011;47998;53.242;6.386;2022-11-20T15:48:16;11.98;;;6.88;;
51578;SDS011;47998;53.242;6.386;2022-11-20T15:50:56;10.00;;;6.70;;
51578;SDS011;47998;53.242;6.386;2022-11-20T15:53:35;8.65;;;6.13;;
51578;SDS011;47998;53.242;6.386;2022-11-20T15:56:05;9.73;;;6.63;;
51578;SDS011;47998;53.242;6.386;2022-11-20T15:58:31;10.18;;;7.07;;
51578;SDS011;47998;53.242;6.386;2022-11-20T16:00:57;11.13;;;7.50;;
51578;SDS011;47998;53.242;6.386;2022-11-20T16:03:23;11.13;;;7.00;;
51578;SDS011;47998;53.242;6.386;2022-11-20T16:05:49;10.32;;;7.28;;
51578;SDS011;47998;53.242;6.386;2022-11-20T16:08:14;11.32;;;6.78;;
51578;SDS011;47998;53.242;6.386;2022-11-20T16:10:40;12.70;;;8.02;;
51578;SDS011;47998;53.242;6.386;2022-11-20T16:13:11;11.18;;;7.28;;
51578;SDS011;47998;53.242;6.386;2022-11-20T16:16:01;10.77;;;6.93;;
51578;SDS011;47998;53.242;6.386;2022-11-20T16:18:32;9.80;;;7.15;;
51578;SDS011;47998;53.242;6.386;2022-11-20T16:20:58;11.00;;;7.63;;
51578;SDS011;47998;53.242;6.386;2022-11-20T16:23:23;11.77;;;7.88;;
51578;SDS011;47998;53.242;6.386;2022-11-20T16:25:49;10.88;;;7.57;;
51578;SDS011;47998;53.242;6.386;2022-11-20T16:28:17;12.98;;;8.75;;
51578;SDS011;47998;53.242;6.386;2022-11-20T16:30:43;14.15;;;8.88;;
51578;SDS011;47998;53.242;6.386;2022-11-20T16:33:14;10.63;;;7.88;;
51578;SDS011;47998;53.242;6.386;2022-11-20T16:35:41;10.32;;;7.43;;